Auchterarder, United Kingdom
Current Conditions -  °F | °C
As of 9:20 AM on Monday 24 Nov 2014 (Local Time) from EGPH Reporting Station
Broken Clouds Broken Clouds  
Wind Chill:   Ceiling: 3500
Heat Index:   Visibility: 6mi
Dew Point:   Wind: 8mph
Humidity: 87%   Direction: 240°WSW
Pressure: 30.18"   Gusts: NA
Location:  56.3°N, 3.71°W
Report Text: EGPH 240920Z 24007KT 9999 BKN035 08/06 Q1022
Loading
Personal Weather Stations






























Interactive Weather Map New forecast layout! Learn more

10-Day Weather Forecast

Advertisements
Track Severe Weather on mobile